createdAt,value
2022-09-23T00:01:46.410Z,7.15
2022-09-23T00:04:16.600Z,7.07
2022-09-23T00:06:45.360Z,6.10
2022-09-23T00:09:14.184Z,6.15
2022-09-23T00:11:43.039Z,7.97
2022-09-23T00:14:11.816Z,7.63
2022-09-23T00:16:40.655Z,8.65
2022-09-23T00:19:41.675Z,4.82
2022-09-23T00:22:10.802Z,9.85
2022-09-23T00:24:40.270Z,7.05
2022-09-23T00:27:09.939Z,4.97
2022-09-23T00:29:39.197Z,6.32
2022-09-23T00:32:08.006Z,8.05
2022-09-23T00:34:38.340Z,9.98
2022-09-23T00:37:07.524Z,10.30
2022-09-23T00:39:36.388Z,13.68
2022-09-23T00:42:05.459Z,14.13
2022-09-23T00:44:56.120Z,16.00
2022-09-23T00:47:30.744Z,11.40
2022-09-23T00:50:06.876Z,16.55
2022-09-23T00:52:37.623Z,9.45
2022-09-23T00:55:10.092Z,8.73
2022-09-23T00:57:41.342Z,7.10
2022-09-23T01:00:11.534Z,8.98
2022-09-23T01:02:40.522Z,5.95
2022-09-23T01:05:11.430Z,11.98
2022-09-23T01:07:40.588Z,14.30
2022-09-23T01:10:11.867Z,7.93
2022-09-23T01:12:59.597Z,10.30
2022-09-23T01:15:37.714Z,10.07
2022-09-23T01:18:16.372Z,10.40
2022-09-23T01:21:16.704Z,15.75
2022-09-23T01:24:36.544Z,7.28
2022-09-23T01:27:48.129Z,9.95
2022-09-23T01:30:34.816Z,6.93
2022-09-23T01:33:14.367Z,6.75
2022-09-23T01:35:51.536Z,7.65
2022-09-23T01:38:33.618Z,5.80
2022-09-23T01:41:08.236Z,7.78
2022-09-23T01:43:44.586Z,10.00
2022-09-23T01:46:20.805Z,11.35
2022-09-23T01:48:56.643Z,8.15
2022-09-23T01:51:30.677Z,8.55
2022-09-23T01:54:05.858Z,9.25
2022-09-23T01:59:15.956Z,7.88
2022-09-23T02:01:52.216Z,10.32
2022-09-23T02:04:26.944Z,7.75
2022-09-23T02:07:00.656Z,8.48
2022-09-23T02:09:34.210Z,5.82
2022-09-23T02:12:09.626Z,7.18
2022-09-23T02:14:43.647Z,7.78
2022-09-23T02:17:21.054Z,9.25
2022-09-23T02:19:55.535Z,9.90
2022-09-23T02:22:30.011Z,6.10
2022-09-23T02:24:59.364Z,19.05
2022-09-23T02:27:33.540Z,8.65
2022-09-23T02:30:10.523Z,14.93
2022-09-23T02:32:51.008Z,8.27
2022-09-23T02:35:25.643Z,7.20
2022-09-23T02:38:02.957Z,6.63
2022-09-23T02:40:38.870Z,6.10
2022-09-23T02:43:13.587Z,6.82
2022-09-23T02:45:42.747Z,6.53
2022-09-23T02:48:17.481Z,6.38
2022-09-23T02:50:47.805Z,5.93
2022-09-23T02:53:17.286Z,5.82
2022-09-23T02:55:46.236Z,9.32
2022-09-23T02:58:15.371Z,6.47
2022-09-23T03:00:56.217Z,8.95
2022-09-23T03:03:40.785Z,6.45
2022-09-23T03:06:21.990Z,7.93
2022-09-23T03:08:58.922Z,6.97
2022-09-23T03:11:28.522Z,4.95
2022-09-23T03:14:17.021Z,9.02
2022-09-23T03:16:52.692Z,8.75
2022-09-23T03:19:28.201Z,5.82
2022-09-23T03:22:03.401Z,8.95
2022-09-23T03:24:34.644Z,9.30
2022-09-23T03:27:08.393Z,5.85
2022-09-23T03:29:37.664Z,5.68
2022-09-23T03:32:08.327Z,8.73
2022-09-23T03:34:40.818Z,17.92
2022-09-23T03:37:15.447Z,12.30
2022-09-23T03:39:49.703Z,13.82
2022-09-23T03:42:23.565Z,10.23
2022-09-23T03:44:56.459Z,8.38
2022-09-23T03:47:27.847Z,12.60
2022-09-23T03:49:58.033Z,6.55
2022-09-23T03:52:27.335Z,6.75
2022-09-23T03:54:56.068Z,4.03
2022-09-23T03:57:25.752Z,7.88
2022-09-23T03:59:54.511Z,6.93
2022-09-23T04:02:23.385Z,15.55
2022-09-23T04:04:52.301Z,9.52
2022-09-23T04:07:22.501Z,10.65
2022-09-23T04:09:51.337Z,8.38
2022-09-23T04:12:20.256Z,7.50
2022-09-23T04:14:49.014Z,8.98
2022-09-23T04:17:18.069Z,12.57
2022-09-23T04:19:46.786Z,19.10
2022-09-23T04:22:15.709Z,15.60
2022-09-23T04:24:45.839Z,10.90
2022-09-23T04:27:14.768Z,15.25
2022-09-23T04:29:43.627Z,25.15
2022-09-23T04:32:12.522Z,18.13
2022-09-23T04:34:41.321Z,15.55
2022-09-23T04:37:10.129Z,12.90
2022-09-23T04:39:38.898Z,16.65
2022-09-23T04:42:09.233Z,23.85
2022-09-23T04:44:38.983Z,18.02
2022-09-23T04:47:08.017Z,16.50
2022-09-23T04:49:36.845Z,15.50
2022-09-23T04:52:06.265Z,17.65
2022-09-23T04:54:35.009Z,18.23
2022-09-23T04:57:03.790Z,24.50
2022-09-23T04:59:34.437Z,14.32
2022-09-23T05:02:03.274Z,13.88
2022-09-23T05:04:32.524Z,17.40
2022-09-23T05:07:03.359Z,18.90
2022-09-23T05:09:32.537Z,16.13
2022-09-23T05:12:01.278Z,19.80
2022-09-23T05:14:30.167Z,22.35
2022-09-23T05:17:00.409Z,15.88
2022-09-23T05:19:29.318Z,21.58
2022-09-23T05:21:58.103Z,15.93
2022-09-23T05:24:27.634Z,17.67
2022-09-23T05:26:56.404Z,17.77
2022-09-23T05:29:25.824Z,14.73
2022-09-23T05:31:54.637Z,20.23
2022-09-23T06:03:27.514Z,9.32
2022-09-23T06:06:27.515Z,14.85
2022-09-23T06:09:03.626Z,9.70
2022-09-23T06:11:37.047Z,9.93
2022-09-23T06:14:33.414Z,5.97
2022-09-23T06:17:09.386Z,5.85
2022-09-23T06:20:05.646Z,5.93
2022-09-23T06:46:00.520Z,6.18
2022-09-23T06:49:28.393Z,6.25
2022-09-23T06:57:05.327Z,6.55
2022-09-23T07:00:21.500Z,11.82
2022-09-23T07:46:56.801Z,3.08
2022-09-23T07:49:31.668Z,7.32
2022-09-23T07:52:00.500Z,3.60
2022-09-23T07:54:30.271Z,5.78
2022-09-23T07:57:00.010Z,2.95
2022-09-23T07:59:46.978Z,6.80
2022-09-23T08:02:17.361Z,5.13
2022-09-23T08:04:46.319Z,4.22
2022-09-23T08:07:15.132Z,4.05
2022-09-23T08:09:45.749Z,4.50
2022-09-23T08:12:17.257Z,5.63
2022-09-23T08:14:46.411Z,5.22
2022-09-23T08:17:15.385Z,4.15
2022-09-23T08:19:45.554Z,5.32
2022-09-23T08:22:16.227Z,4.43
2022-09-23T08:24:45.153Z,11.80
2022-09-23T08:27:14.487Z,5.20
2022-09-23T08:29:43.371Z,5.15
2022-09-23T08:32:12.252Z,3.80
2022-09-23T08:34:42.105Z,3.63
2022-09-23T08:37:12.644Z,2.90
2022-09-23T08:39:41.402Z,4.95
2022-09-23T08:42:18.467Z,3.50
2022-09-23T08:44:50.832Z,4.15
2022-09-23T08:47:45.601Z,2.55
2022-09-23T08:51:08.267Z,4.68
2022-09-23T08:53:45.912Z,2.30
2022-09-23T08:57:25.869Z,3.28
2022-09-23T09:00:56.994Z,2.53
2022-09-23T09:13:52.896Z,2.88
2022-09-23T09:17:09.827Z,2.22
2022-09-23T09:21:26.775Z,2.50
2022-09-23T09:24:39.752Z,3.28
2022-09-23T09:28:35.740Z,2.28
2022-09-23T09:31:25.666Z,3.33
2022-09-23T09:35:03.958Z,1.02
2022-09-23T09:37:40.478Z,1.35
2022-09-23T09:41:07.468Z,0.82
2022-09-23T09:43:09.635Z,0.82
2022-09-23T09:50:21.893Z,1.95
2022-09-23T09:53:25.822Z,0.30
2022-09-23T09:56:04.906Z,0.68
2022-09-23T09:58:43.957Z,0.60
2022-09-23T10:01:24.507Z,1.02
2022-09-23T10:04:39.540Z,1.27
2022-09-23T10:07:57.314Z,1.38
2022-09-23T10:10:32.983Z,0.15
2022-09-23T10:14:18.208Z,0.38
2022-09-23T10:17:05.529Z,0.68
2022-09-23T10:19:38.079Z,0.88
2022-09-23T10:22:39.028Z,0.65
2022-09-23T10:25:35.592Z,1.42
2022-09-23T10:28:33.941Z,1.30
2022-09-23T10:31:08.096Z,0.25
2022-09-23T10:33:42.331Z,1.63
2022-09-23T10:36:12.179Z,0.22
2022-09-23T10:38:41.097Z,1.02
2022-09-23T10:41:35.616Z,1.05
2022-09-23T10:44:39.413Z,1.55
2022-09-23T10:47:19.403Z,0.32
2022-09-23T10:50:09.848Z,1.10
2022-09-23T10:53:01.907Z,6.53
2022-09-23T10:55:41.113Z,0.68
2022-09-23T10:58:27.539Z,0.20
2022-09-23T11:01:13.102Z,0.17
2022-09-23T11:04:07.508Z,6.90
2022-09-23T11:06:46.972Z,0.20
2022-09-23T11:09:31.365Z,0.82
2022-09-23T11:12:11.264Z,0.10
2022-09-23T11:14:56.051Z,0.88
2022-09-23T11:17:41.976Z,0.10
2022-09-23T11:20:35.829Z,0.10
2022-09-23T11:23:33.502Z,0.22
2022-09-23T11:26:11.626Z,0.50
2022-09-23T11:29:07.801Z,0.50
2022-09-23T11:31:47.509Z,0.80
2022-09-23T11:34:34.596Z,1.38
2022-09-23T11:37:08.301Z,0.47
2022-09-23T11:39:42.864Z,0.65
2022-09-23T11:42:19.061Z,0.68
2022-09-23T11:44:52.721Z,0.10
2022-09-23T11:47:26.250Z,0.17
2022-09-23T11:50:01.200Z,0.15
2022-09-23T11:52:35.048Z,0.38
2022-09-23T11:55:21.403Z,0.68
2022-09-23T11:57:54.596Z,0.77
2022-09-23T12:00:26.623Z,0.30
2022-09-23T12:03:06.708Z,0.30
2022-09-23T12:05:42.903Z,0.40
2022-09-23T12:08:25.051Z,2.65
2022-09-23T12:11:04.605Z,0.32
2022-09-23T12:13:44.195Z,1.55
2022-09-23T12:16:39.574Z,7.13
2022-09-23T12:19:23.845Z,1.30
2022-09-23T12:22:09.953Z,0.38
2022-09-23T12:24:47.716Z,0.75
2022-09-23T12:27:24.231Z,1.15
2022-09-23T12:29:57.737Z,2.00
2022-09-23T12:32:27.743Z,0.65
2022-09-23T12:34:57.117Z,0.95
2022-09-23T12:37:30.619Z,1.55
2022-09-23T12:40:09.389Z,3.20
2022-09-23T12:42:44.279Z,0.55
2022-09-23T12:45:35.546Z,1.50
2022-09-23T12:48:06.209Z,0.65
2022-09-23T12:50:58.439Z,0.98
2022-09-23T12:54:09.422Z,0.82
2022-09-23T12:57:07.389Z,0.10
2022-09-23T12:59:58.755Z,0.30
2022-09-23T13:02:32.511Z,0.40
2022-09-23T13:05:34.954Z,0.73
2022-09-23T13:08:08.973Z,1.15
2022-09-23T13:10:44.411Z,0.25
2022-09-23T13:13:23.531Z,0.52
2022-09-23T13:15:55.069Z,0.10
2022-09-23T13:18:59.563Z,0.30
2022-09-23T13:22:07.809Z,0.30
2022-09-23T13:24:46.076Z,1.27
2022-09-23T13:27:21.037Z,0.75
2022-09-23T13:29:58.611Z,0.93
2022-09-23T13:32:32.670Z,2.65
2022-09-23T13:35:04.255Z,0.68
2022-09-23T13:37:43.289Z,1.42
2022-09-23T13:40:20.201Z,1.10
2022-09-23T13:42:55.382Z,4.40
2022-09-23T13:45:27.280Z,0.65
2022-09-23T13:48:02.735Z,2.15
2022-09-23T13:50:35.009Z,0.73
2022-09-23T13:53:08.811Z,0.60
2022-09-23T13:55:39.433Z,1.60
2022-09-23T13:58:18.567Z,0.28
2022-09-23T14:00:49.941Z,2.40
2022-09-23T14:03:25.723Z,0.43
2022-09-23T14:05:56.174Z,0.93
2022-09-23T14:08:25.881Z,1.42
2022-09-23T14:10:55.567Z,1.60
2022-09-23T14:13:27.977Z,1.15
2022-09-23T14:16:00.579Z,1.52
2022-09-23T14:18:33.896Z,0.60
2022-09-23T14:21:02.886Z,1.15
2022-09-23T14:23:32.152Z,0.45
2022-09-23T14:26:03.248Z,0.73
2022-09-23T14:28:32.300Z,1.17
2022-09-23T14:31:03.746Z,0.63
2022-09-23T14:33:34.723Z,0.65
2022-09-23T14:36:09.005Z,3.20
2022-09-23T14:38:52.358Z,1.42
2022-09-23T14:41:24.914Z,0.47
2022-09-23T14:43:58.276Z,4.13
2022-09-23T14:46:31.393Z,1.23
2022-09-23T14:49:05.730Z,2.88
2022-09-23T14:51:46.795Z,1.37
2022-09-23T14:54:33.171Z,1.30
2022-09-23T14:57:02.986Z,2.45
2022-09-23T14:59:35.739Z,0.80
2022-09-23T15:02:31.442Z,1.25
2022-09-23T15:05:17.374Z,1.27
2022-09-23T15:07:52.362Z,2.00
2022-09-23T15:10:25.024Z,1.77
2022-09-23T15:12:55.749Z,0.88
2022-09-23T15:15:28.363Z,0.65
2022-09-23T15:18:05.224Z,1.13
2022-09-23T15:20:34.687Z,1.40
2022-09-23T15:23:03.883Z,2.53
2022-09-23T15:25:35.611Z,2.08
2022-09-23T15:28:23.827Z,0.95
2022-09-23T15:30:53.429Z,2.92
2022-09-23T15:33:28.025Z,0.90
2022-09-23T15:35:57.423Z,2.97
2022-09-23T15:38:26.918Z,0.68
2022-09-23T15:40:55.868Z,1.05
2022-09-23T15:43:26.951Z,2.42
2022-09-23T15:45:58.037Z,1.75
2022-09-23T15:48:32.575Z,1.88
2022-09-23T15:51:06.972Z,1.63
2022-09-23T15:53:36.575Z,1.93
2022-09-23T15:56:06.306Z,3.00
2022-09-23T15:58:35.288Z,4.53
2022-09-23T16:01:05.061Z,4.40
2022-09-23T16:03:35.376Z,7.32
2022-09-23T16:06:06.002Z,6.10
2022-09-23T16:08:34.795Z,6.68
2022-09-23T16:11:03.632Z,1.58
2022-09-23T16:13:32.382Z,6.88
2022-09-23T16:16:01.210Z,3.17
2022-09-23T16:18:30.297Z,3.65
2022-09-23T16:21:00.499Z,1.30
2022-09-23T16:23:38.657Z,1.70
2022-09-23T16:26:13.955Z,1.70
2022-09-23T16:28:43.100Z,1.65
2022-09-23T16:31:12.419Z,1.85
2022-09-23T16:33:41.287Z,2.55
2022-09-23T16:36:17.229Z,2.33
2022-09-23T16:38:47.315Z,2.17
2022-09-23T16:41:16.473Z,2.70
2022-09-23T16:43:45.314Z,2.40
2022-09-23T16:46:16.736Z,1.80
2022-09-23T16:48:52.085Z,14.70
2022-09-23T16:51:26.547Z,4.70
2022-09-23T16:53:56.819Z,4.90
2022-09-23T16:56:28.882Z,6.75
2022-09-23T16:58:58.093Z,3.72
2022-09-23T17:01:46.252Z,9.57
2022-09-23T17:04:16.646Z,6.35
2022-09-23T17:06:50.275Z,3.10
2022-09-23T17:09:20.461Z,5.68
2022-09-23T17:11:56.447Z,3.97
2022-09-23T17:14:25.422Z,4.13
2022-09-23T17:16:54.213Z,2.70
2022-09-23T17:19:23.420Z,2.60
2022-09-23T17:21:54.325Z,1.75
2022-09-23T17:24:23.620Z,2.85
2022-09-23T17:26:53.433Z,6.18
2022-09-23T17:29:22.398Z,4.93
2022-09-23T17:31:51.274Z,6.50
2022-09-23T17:34:20.127Z,6.40
2022-09-23T17:36:49.686Z,4.18
2022-09-23T17:39:19.925Z,3.55
2022-09-23T17:41:48.707Z,1.70
2022-09-23T17:44:17.731Z,4.53
2022-09-23T17:46:47.215Z,5.03
2022-09-23T17:49:17.820Z,6.72
2022-09-23T17:51:46.708Z,5.00
2022-09-23T17:54:16.061Z,4.93
2022-09-23T17:56:46.324Z,2.95
2022-09-23T17:59:15.283Z,6.53
2022-09-23T18:01:44.227Z,2.88
2022-09-23T18:04:13.030Z,7.93
2022-09-23T18:06:41.874Z,11.38
2022-09-23T18:09:10.990Z,11.27
2022-09-23T18:11:41.987Z,4.63
2022-09-23T18:14:16.434Z,2.75
2022-09-23T18:16:47.477Z,11.97
2022-09-23T18:19:17.685Z,5.50
2022-09-23T18:21:49.614Z,2.70
2022-09-23T18:24:35.082Z,5.43
2022-09-23T18:29:34.274Z,5.18
2022-09-23T18:32:03.868Z,6.93
2022-09-23T18:34:32.885Z,4.85
2022-09-23T18:37:01.666Z,10.45
2022-09-23T18:39:30.685Z,3.28
2022-09-23T18:42:02.616Z,5.78
2022-09-23T18:44:31.599Z,12.48
2022-09-23T18:47:01.772Z,4.40
2022-09-23T18:49:47.872Z,2.63
2022-09-23T18:52:16.771Z,3.20
2022-09-23T18:54:45.544Z,6.43
2022-09-23T18:57:14.671Z,2.15
2022-09-23T18:59:44.399Z,3.10
2022-09-23T19:02:17.163Z,3.85
2022-09-23T19:04:46.001Z,2.75
2022-09-23T19:07:15.371Z,2.75
2022-09-23T19:09:44.103Z,5.53
2022-09-23T19:12:13.063Z,3.60
2022-09-23T19:14:43.724Z,1.95
2022-09-23T19:17:14.000Z,1.88
2022-09-23T19:19:42.883Z,1.58
2022-09-23T19:22:11.624Z,2.58
2022-09-23T19:24:40.435Z,2.20
2022-09-23T19:27:09.467Z,2.50
2022-09-23T19:29:39.218Z,0.55
2022-09-23T19:32:08.085Z,3.67
2022-09-23T19:34:38.725Z,1.77
2022-09-23T19:37:07.557Z,1.65
2022-09-23T19:39:37.539Z,1.92
2022-09-23T19:42:07.687Z,2.65
2022-09-23T19:44:40.974Z,3.60
2022-09-23T19:47:15.445Z,1.90
2022-09-23T19:49:45.821Z,3.07
2022-09-23T19:52:14.672Z,2.92
2022-09-23T19:54:43.477Z,0.85
2022-09-23T19:57:12.216Z,1.83
2022-09-23T19:59:41.037Z,1.95
2022-09-23T20:02:11.770Z,2.25
2022-09-23T20:04:40.694Z,6.03
2022-09-23T20:07:10.867Z,8.73
2022-09-23T20:09:39.624Z,4.55
2022-09-23T20:12:08.434Z,5.22
2022-09-23T20:14:37.231Z,4.78
2022-09-23T20:17:05.980Z,4.50
2022-09-23T20:19:34.757Z,3.83
2022-09-23T20:22:20.723Z,3.35
2022-09-23T20:24:50.885Z,2.10
2022-09-23T20:27:19.103Z,1.33
2022-09-23T20:29:48.431Z,3.30
2022-09-23T20:32:17.217Z,4.15
2022-09-23T20:34:46.711Z,2.05
2022-09-23T20:37:17.558Z,3.58
2022-09-23T20:39:46.518Z,0.93
2022-09-23T20:42:17.292Z,1.42
2022-09-23T20:44:46.300Z,1.48
2022-09-23T20:47:16.959Z,10.10
2022-09-23T20:49:48.966Z,4.82
2022-09-23T20:52:20.425Z,8.73
2022-09-23T20:54:50.403Z,4.18
2022-09-23T20:57:21.570Z,5.50
2022-09-23T20:59:50.327Z,6.10
2022-09-23T21:02:19.482Z,10.30
2022-09-23T21:04:48.329Z,4.00
2022-09-23T21:07:17.146Z,12.10
2022-09-23T21:09:45.944Z,8.80
2022-09-23T21:12:14.714Z,11.73
2022-09-23T21:14:44.923Z,4.45
2022-09-23T21:17:14.070Z,7.82
2022-09-23T21:19:42.836Z,7.55
2022-09-23T21:22:12.482Z,17.13
2022-09-23T21:25:16.089Z,9.30
2022-09-23T21:27:30.641Z,8.30
2022-09-23T21:30:01.176Z,7.63
2022-09-23T21:32:31.278Z,12.70
2022-09-23T21:35:00.087Z,11.32
2022-09-23T21:37:28.939Z,9.95
2022-09-23T21:40:11.570Z,6.10
2022-09-23T21:42:40.430Z,8.60
2022-09-23T21:45:11.945Z,10.77
2022-09-23T21:47:42.164Z,7.43
2022-09-23T21:50:12.025Z,12.20
2022-09-23T21:52:40.746Z,15.15
2022-09-23T21:55:09.540Z,8.20
2022-09-23T21:57:38.342Z,10.88
2022-09-23T22:00:09.374Z,12.95
2022-09-23T22:02:40.009Z,20.98
2022-09-23T22:05:09.349Z,9.73
2022-09-23T22:07:38.492Z,8.60
2022-09-23T22:10:08.309Z,8.35
2022-09-23T22:12:37.117Z,9.18
2022-09-23T22:15:07.151Z,12.75
2022-09-23T22:17:35.953Z,17.58
2022-09-23T22:20:08.247Z,10.13
2022-09-23T22:22:37.144Z,11.50
2022-09-23T22:25:06.699Z,9.38
2022-09-23T22:27:56.170Z,7.68
2022-09-23T22:30:42.139Z,6.82
2022-09-23T22:33:11.071Z,11.43
2022-09-23T22:35:41.244Z,7.18
2022-09-23T22:38:10.310Z,7.78
2022-09-23T22:40:39.471Z,8.38
2022-09-23T22:43:08.522Z,12.07
2022-09-23T22:45:37.692Z,16.75
2022-09-23T22:48:06.807Z,15.52
2022-09-23T22:50:35.567Z,11.13
2022-09-23T22:53:06.982Z,17.60
2022-09-23T22:55:35.803Z,14.75
2022-09-23T22:58:27.592Z,13.50
2022-09-23T23:00:57.179Z,9.70
2022-09-23T23:03:27.503Z,7.43
2022-09-23T23:05:57.510Z,10.82
2022-09-23T23:08:27.803Z,7.60
2022-09-23T23:10:59.081Z,11.73
2022-09-23T23:13:31.424Z,15.50
2022-09-23T23:16:03.722Z,13.13
2022-09-23T23:18:33.820Z,12.40
2022-09-23T23:21:10.838Z,13.73
2022-09-23T23:23:42.363Z,12.15
2022-09-23T23:26:13.253Z,7.55
2022-09-23T23:28:44.563Z,13.10
2022-09-23T23:31:15.944Z,8.90
2022-09-23T23:33:45.539Z,7.85
2022-09-23T23:36:16.305Z,18.60
2022-09-23T23:38:48.138Z,12.55
2022-09-23T23:41:18.657Z,11.65
2022-09-23T23:43:48.927Z,14.98
2022-09-23T23:46:18.314Z,14.73
2022-09-23T23:48:48.240Z,12.38
2022-09-23T23:51:17.452Z,8.93
2022-09-23T23:53:48.317Z,9.23
2022-09-23T23:56:18.930Z,10.70
2022-09-23T23:58:48.132Z,14.48
